Time;durP1;ratioP1;P1;durP2;ratioP2;P2;SDS_P1;SDS_P2;PMS_P1;PMS_P2;Temp;Humidity;BMP_temperature;BMP_pressure;BME280_temperature;BME280_humidity;BME280_pressure;Samples;Min_cycle;Max_cycle;Signal;HPM_P1;HPM_P2
2021/09/12 00:00:26;;;;;;;4.97;4.57;;;17.10;99.90;;;;;;5019737;28;20175;-84
2021/09/12 00:02:51;;;;;;;5.20;4.80;;;17.10;99.90;;;;;;5020569;28;20193;-84
2021/09/12 00:05:17;;;;;;;4.47;4.07;;;17.10;99.90;;;;;;5019881;28;20199;-84
2021/09/12 00:07:43;;;;;;;4.50;4.20;;;17.10;99.90;;;;;;5015928;28;20185;-83
2021/09/12 00:10:09;;;;;;;4.40;4.00;;;17.10;99.90;;;;;;5015514;28;20187;-84
2021/09/12 00:12:37;;;;;;;3.93;3.63;;;17.00;99.90;;;;;;5019398;28;20618;-84
2021/09/12 00:15:04;;;;;;;4.23;3.93;;;17.00;99.90;;;;;;5021370;28;20198;-84
2021/09/12 00:17:29;;;;;;;4.30;4.00;;;16.90;99.90;;;;;;5023168;28;20206;-84
2021/09/12 00:19:55;;;;;;;5.57;4.17;;;16.90;99.90;;;;;;5022799;28;20182;-84
2021/09/12 00:22:21;;;;;;;5.70;3.90;;;16.90;99.90;;;;;;5023147;28;20243;-84
2021/09/12 00:24:46;;;;;;;3.80;3.50;;;16.90;99.90;;;;;;5023546;28;20281;-83
2021/09/12 00:27:12;;;;;;;4.53;3.77;;;16.80;99.90;;;;;;5037201;28;20169;-85
2021/09/12 00:29:38;;;;;;;3.83;3.53;;;16.80;99.90;;;;;;5021865;28;20174;-84
2021/09/12 00:32:04;;;;;;;4.43;4.10;;;16.80;99.90;;;;;;5023496;28;20569;-84
2021/09/12 00:34:29;;;;;;;4.60;4.20;;;16.70;99.90;;;;;;5021493;28;20280;-84
2021/09/12 00:36:55;;;;;;;4.30;4.00;;;16.70;99.90;;;;;;5019669;28;20193;-84
2021/09/12 00:39:20;;;;;;;4.00;3.70;;;16.70;99.90;;;;;;5020986;28;20178;-84
2021/09/12 00:41:46;;;;;;;4.70;3.87;;;16.80;99.90;;;;;;5022061;28;20194;-84
2021/09/12 00:44:13;;;;;;;4.40;4.00;;;16.80;99.90;;;;;;5021946;28;20259;-84
2021/09/12 00:46:48;;;;;;;3.70;3.30;;;16.80;99.90;;;;;;5019960;28;20189;-84
2021/09/12 00:49:15;;;;;;;4.87;4.10;;;16.80;99.90;;;;;;5017016;28;20183;-84
2021/09/12 00:51:41;;;;;;;4.47;3.80;;;16.70;99.90;;;;;;5019847;28;20171;-84
2021/09/12 00:54:08;;;;;;;4.30;3.63;;;16.70;99.90;;;;;;5019957;28;20253;-84
2021/09/12 00:56:39;;;;;;;4.17;3.87;;;16.60;99.90;;;;;;5026438;28;20190;-84
2021/09/12 00:59:09;;;;;;;4.20;3.80;;;16.50;99.90;;;;;;5030397;28;20560;-84
2021/09/12 01:01:36;;;;;;;4.53;4.13;;;16.50;99.90;;;;;;5020074;28;20198;-84
2021/09/12 01:04:02;;;;;;;4.17;3.83;;;16.50;99.90;;;;;;5021852;28;20233;-84
2021/09/12 01:06:29;;;;;;;3.83;3.53;;;16.50;99.90;;;;;;5021715;28;20183;-84
2021/09/12 01:08:55;;;;;;;4.80;3.80;;;16.40;99.90;;;;;;5021132;28;20540;-84
2021/09/12 01:11:20;;;;;;;4.97;4.03;;;16.40;99.90;;;;;;5021378;28;20175;-84
2021/09/12 01:13:46;;;;;;;3.97;3.73;;;16.50;99.90;;;;;;5021195;28;20182;-83
2021/09/12 01:16:17;;;;;;;4.20;3.73;;;16.50;99.90;;;;;;5021897;28;20306;-84
2021/09/12 01:18:43;;;;;;;4.33;3.70;;;16.40;99.90;;;;;;5020325;28;20182;-84
2021/09/12 01:21:20;;;;;;;3.83;3.53;;;16.50;99.90;;;;;;5021964;28;20179;-84
2021/09/12 01:23:47;;;;;;;4.50;4.10;;;16.50;99.90;;;;;;5021213;28;20245;-84
2021/09/12 01:26:18;;;;;;;3.90;3.60;;;16.50;99.90;;;;;;5020232;28;20182;-84
2021/09/12 01:28:44;;;;;;;5.33;3.73;;;16.40;99.90;;;;;;5020903;28;20182;-84
2021/09/12 01:31:24;;;;;;;4.27;3.87;;;16.40;99.90;;;;;;5019674;28;20234;-84
2021/09/12 01:33:50;;;;;;;3.80;3.50;;;16.30;99.90;;;;;;5019914;28;20178;-84
2021/09/12 01:36:16;;;;;;;7.23;4.07;;;16.20;99.90;;;;;;5021356;28;20205;-84
2021/09/12 01:38:43;;;;;;;4.27;3.57;;;16.20;99.90;;;;;;5017313;28;20210;-84
2021/09/12 01:41:09;;;;;;;4.00;3.63;;;16.20;99.90;;;;;;5011771;28;20178;-84
2021/09/12 01:43:35;;;;;;;5.03;3.80;;;16.10;99.90;;;;;;5019622;28;20524;-84
2021/09/12 01:46:00;;;;;;;4.03;3.40;;;16.10;99.90;;;;;;5018792;28;20260;-85
2021/09/12 01:48:26;;;;;;;3.67;3.33;;;16.10;99.90;;;;;;5010562;28;20535;-84
2021/09/12 01:50:52;;;;;;;4.53;4.13;;;16.20;99.90;;;;;;5020747;28;20220;-84
2021/09/12 01:53:17;;;;;;;4.60;4.20;;;16.20;99.90;;;;;;5020359;28;20194;-84
2021/09/12 01:55:43;;;;;;;4.00;3.70;;;16.10;99.90;;;;;;5031950;28;20202;-84
2021/09/12 01:58:09;;;;;;;3.80;3.50;;;16.10;99.90;;;;;;5020811;28;20204;-84
2021/09/12 02:00:34;;;;;;;4.03;3.60;;;16.10;99.90;;;;;;5021063;28;20179;-84
2021/09/12 02:03:00;;;;;;;4.40;4.00;;;16.10;99.90;;;;;;5019939;28;20191;-84
2021/09/12 02:05:26;;;;;;;4.67;3.60;;;16.10;99.90;;;;;;5018663;28;20681;-84
2021/09/12 02:07:52;;;;;;;4.87;3.70;;;16.20;99.90;;;;;;5029800;28;20212;-84
2021/09/12 02:10:17;;;;;;;4.27;3.97;;;16.10;99.90;;;;;;5022853;28;20685;-84
2021/09/12 02:12:43;;;;;;;3.83;3.53;;;16.10;99.90;;;;;;5018391;28;20220;-84
2021/09/12 02:15:09;;;;;;;3.80;3.50;;;16.10;99.90;;;;;;5018719;28;20223;-84
2021/09/12 02:17:36;;;;;;;3.87;3.57;;;15.90;99.90;;;;;;5018562;28;20253;-84
2021/09/12 02:20:03;;;;;;;5.17;4.23;;;15.90;99.90;;;;;;5019646;28;20187;-84
2021/09/12 02:22:28;;;;;;;4.67;3.57;;;15.80;99.90;;;;;;5032287;28;20170;-84
2021/09/12 02:24:54;;;;;;;3.63;3.33;;;15.90;99.90;;;;;;5021499;28;20202;-84
2021/09/12 02:27:19;;;;;;;4.17;3.80;;;15.90;99.90;;;;;;5022819;28;20207;-84
2021/09/12 02:29:45;;;;;;;4.50;3.90;;;15.90;99.90;;;;;;5021355;28;20186;-82
2021/09/12 02:32:11;;;;;;;3.90;3.47;;;15.90;99.90;;;;;;5035304;28;20180;-86
2021/09/12 02:34:37;;;;;;;3.97;3.67;;;15.90;99.90;;;;;;5021687;28;20221;-84
2021/09/12 02:37:02;;;;;;;4.60;3.67;;;16.00;99.90;;;;;;5013093;28;20232;-84
2021/09/12 02:39:28;;;;;;;3.77;3.47;;;16.00;99.90;;;;;;5018849;28;20243;-85
2021/09/12 02:41:54;;;;;;;3.50;3.20;;;16.00;99.90;;;;;;5020723;28;20178;-84
2021/09/12 02:44:19;;;;;;;5.93;3.60;;;15.90;99.90;;;;;;5021424;28;20227;-84
2021/09/12 02:46:45;;;;;;;3.53;3.23;;;16.00;99.90;;;;;;5019557;28;20187;-84
2021/09/12 02:49:10;;;;;;;4.07;3.70;;;15.90;99.90;;;;;;5014663;28;20237;-85
2021/09/12 02:51:36;;;;;;;3.70;3.40;;;16.00;99.90;;;;;;5019092;28;20242;-84
2021/09/12 02:54:02;;;;;;;3.57;3.37;;;15.90;99.90;;;;;;5020175;28;20285;-84
2021/09/12 02:56:27;;;;;;;4.17;3.83;;;15.90;99.90;;;;;;5019860;28;20210;-84
2021/09/12 02:58:53;;;;;;;4.03;3.73;;;15.90;99.90;;;;;;5020172;28;20182;-84
2021/09/12 03:01:19;;;;;;;4.07;3.77;;;15.90;99.90;;;;;;5029622;28;20177;-84
2021/09/12 03:03:44;;;;;;;4.10;3.60;;;15.90;99.90;;;;;;5020303;28;20177;-84
2021/09/12 03:06:10;;;;;;;4.20;3.90;;;15.90;99.90;;;;;;5019963;28;20225;-84
2021/09/12 03:08:35;;;;;;;3.93;3.43;;;15.90;99.90;;;;;;5021054;28;20181;-83
2021/09/12 03:11:01;;;;;;;4.03;3.73;;;15.90;99.90;;;;;;5030210;28;20223;-83
2021/09/12 03:13:27;;;;;;;5.80;3.87;;;15.90;99.90;;;;;;5019790;28;20182;-84
2021/09/12 03:15:52;;;;;;;6.17;3.90;;;15.80;99.90;;;;;;5019014;28;20221;-84
2021/09/12 03:18:18;;;;;;;5.77;3.80;;;15.80;99.90;;;;;;5020032;28;20183;-84
2021/09/12 03:20:43;;;;;;;3.90;3.60;;;15.80;99.90;;;;;;5019568;28;20183;-84
2021/09/12 03:23:09;;;;;;;3.50;3.30;;;15.80;99.90;;;;;;5018738;28;20175;-84
2021/09/12 03:25:35;;;;;;;4.10;3.70;;;15.90;99.90;;;;;;5032027;28;20200;-84
2021/09/12 03:28:00;;;;;;;4.50;3.57;;;15.80;99.90;;;;;;5017828;28;20644;-83
2021/09/12 03:30:27;;;;;;;3.97;3.67;;;15.80;99.90;;;;;;5019487;28;20244;-84
2021/09/12 03:32:52;;;;;;;3.80;3.50;;;15.80;99.90;;;;;;5018143;28;20203;-84
2021/09/12 03:35:18;;;;;;;5.37;4.00;;;15.80;99.90;;;;;;5017482;28;20221;-83
2021/09/12 03:37:44;;;;;;;3.97;3.57;;;15.80;99.90;;;;;;5018684;28;20194;-84
2021/09/12 03:40:10;;;;;;;4.03;3.60;;;15.80;99.90;;;;;;5017563;28;20270;-84
2021/09/12 03:42:36;;;;;;;3.70;3.40;;;15.80;99.90;;;;;;5019524;28;20746;-83
2021/09/12 03:45:02;;;;;;;4.13;3.83;;;15.80;99.90;;;;;;5029212;28;20214;-84
2021/09/12 03:47:28;;;;;;;3.70;3.40;;;15.80;99.90;;;;;;5020204;28;20215;-83
2021/09/12 03:49:53;;;;;;;4.47;3.60;;;15.80;99.90;;;;;;5000245;28;20260;-83
2021/09/12 03:52:19;;;;;;;3.97;3.67;;;15.70;99.90;;;;;;5016266;28;20179;-83
2021/09/12 03:54:45;;;;;;;4.00;3.60;;;15.70;99.90;;;;;;5020037;28;20198;-82
2021/09/12 03:57:11;;;;;;;4.70;3.60;;;15.70;99.90;;;;;;5027975;28;20182;-83
2021/09/12 03:59:37;;;;;;;4.40;4.00;;;15.70;99.90;;;;;;5034161;28;20213;-83
2021/09/12 04:02:02;;;;;;;3.80;3.50;;;15.60;99.90;;;;;;5026655;28;20191;-84
2021/09/12 04:04:28;;;;;;;3.87;3.57;;;15.60;99.90;;;;;;5029201;28;20867;-84
2021/09/12 04:06:54;;;;;;;4.03;3.73;;;15.60;99.90;;;;;;5017315;28;20210;-83
2021/09/12 04:09:20;;;;;;;4.67;3.83;;;15.60;99.90;;;;;;5017733;28;20175;-84
2021/09/12 04:11:46;;;;;;;4.00;3.60;;;15.60;99.90;;;;;;5017142;28;20190;-83
2021/09/12 04:14:11;;;;;;;3.83;3.50;;;15.50;99.90;;;;;;5025113;28;20190;-83
2021/09/12 04:16:37;;;;;;;4.10;3.70;;;15.50;99.90;;;;;;5015695;28;20724;-83
2021/09/12 04:19:03;;;;;;;4.07;3.67;;;15.50;99.90;;;;;;5018448;28;20274;-83
2021/09/12 04:21:29;;;;;;;3.93;3.67;;;15.40;99.90;;;;;;5019046;28;20183;-83
2021/09/12 04:23:55;;;;;;;4.23;3.83;;;15.40;99.90;;;;;;5010384;28;20185;-83
2021/09/12 04:26:21;;;;;;;4.20;3.90;;;15.40;99.90;;;;;;5003362;28;20209;-83
2021/09/12 04:28:47;;;;;;;3.83;3.53;;;15.40;99.90;;;;;;4999867;28;20192;-84
2021/09/12 04:31:12;;;;;;;4.40;4.10;;;15.30;99.90;;;;;;5020684;28;20181;-83
2021/09/12 04:33:39;;;;;;;3.80;3.50;;;15.30;99.90;;;;;;5020123;28;20188;-84
2021/09/12 04:36:04;;;;;;;4.23;3.90;;;15.30;99.90;;;;;;5019418;28;20187;-84
2021/09/12 04:38:30;;;;;;;3.83;3.53;;;15.30;99.90;;;;;;5018478;28;20184;-84
2021/09/12 04:40:56;;;;;;;3.97;3.67;;;15.20;99.90;;;;;;5018334;28;20593;-84
2021/09/12 04:43:21;;;;;;;4.23;3.93;;;15.20;99.90;;;;;;5019957;28;20186;-84
2021/09/12 04:45:47;;;;;;;3.47;3.20;;;15.20;99.90;;;;;;5020419;28;20207;-84
2021/09/12 04:48:13;;;;;;;3.80;3.50;;;15.20;99.90;;;;;;5024338;28;20206;-84
2021/09/12 04:50:39;;;;;;;3.77;3.47;;;15.20;99.90;;;;;;5020268;28;20187;-83
2021/09/12 04:53:04;;;;;;;3.70;3.40;;;15.20;99.90;;;;;;5018862;28;20179;-84
2021/09/12 04:55:30;;;;;;;4.27;3.60;;;15.10;99.90;;;;;;5020680;28;20284;-84
2021/09/12 04:57:56;;;;;;;4.03;3.73;;;15.10;99.90;;;;;;5019500;28;20595;-84
2021/09/12 05:00:21;;;;;;;3.80;3.50;;;15.10;99.90;;;;;;5020034;28;20186;-84
2021/09/12 05:02:48;;;;;;;3.90;3.50;;;15.10;99.90;;;;;;5018991;28;20183;-83
2021/09/12 05:05:13;;;;;;;6.23;3.67;;;15.10;99.90;;;;;;5021495;28;20214;-84
2021/09/12 05:07:39;;;;;;;4.00;3.70;;;15.20;99.90;;;;;;5030515;28;20199;-83
2021/09/12 05:10:05;;;;;;;4.20;3.60;;;15.20;99.90;;;;;;5019438;28;20183;-84
2021/09/12 05:12:31;;;;;;;3.67;3.40;;;15.20;99.90;;;;;;5019035;28;20638;-84
2021/09/12 05:14:56;;;;;;;4.37;3.93;;;15.20;99.90;;;;;;5020632;28;20219;-84
2021/09/12 05:17:22;;;;;;;5.00;3.57;;;15.20;99.90;;;;;;5020316;28;20191;-84
2021/09/12 05:19:48;;;;;;;4.17;3.87;;;15.20;99.90;;;;;;5021033;28;20274;-83
2021/09/12 05:22:14;;;;;;;3.40;3.10;;;15.20;99.90;;;;;;5019748;28;20711;-84
2021/09/12 05:24:39;;;;;;;3.90;3.60;;;15.20;99.90;;;;;;5019362;28;20273;-83
2021/09/12 05:27:05;;;;;;;4.30;3.90;;;15.10;99.90;;;;;;5019012;28;20674;-84
2021/09/12 05:29:31;;;;;;;4.33;3.70;;;15.10;99.90;;;;;;5017582;28;20244;-84
2021/09/12 05:31:57;;;;;;;3.63;3.33;;;15.10;99.90;;;;;;5015610;28;20214;-83
2021/09/12 05:36:57;;;;;;;3.53;3.23;;;15.00;99.90;;;;;;5014765;28;20272;-79
2021/09/12 05:39:22;;;;;;;4.23;3.90;;;14.90;99.90;;;;;;5017894;28;20175;-79
2021/09/12 05:41:48;;;;;;;4.63;3.40;;;14.90;99.90;;;;;;5002482;28;20188;-80
2021/09/12 05:44:13;;;;;;;4.67;3.70;;;15.00;99.90;;;;;;5008152;28;20209;-80
2021/09/12 05:46:39;;;;;;;3.77;3.47;;;15.00;99.90;;;;;;5032095;28;20269;-80
2021/09/12 05:49:05;;;;;;;4.40;4.00;;;15.10;99.90;;;;;;5023281;28;20579;-80
2021/09/12 05:51:30;;;;;;;3.90;3.40;;;15.00;99.90;;;;;;5029060;28;20214;-80
2021/09/12 05:53:56;;;;;;;4.37;3.93;;;15.10;99.90;;;;;;5003654;28;20701;-80
2021/09/12 05:56:22;;;;;;;3.57;3.27;;;15.10;99.90;;;;;;5006324;28;20198;-80
2021/09/12 05:58:48;;;;;;;3.80;3.50;;;15.20;99.90;;;;;;5009455;28;20244;-80
2021/09/12 06:01:14;;;;;;;3.57;3.27;;;15.20;99.90;;;;;;4987004;28;20262;-81
2021/09/12 06:03:40;;;;;;;4.20;3.73;;;15.20;99.90;;;;;;5014485;28;20183;-80
2021/09/12 06:06:06;;;;;;;4.03;3.77;;;15.20;99.90;;;;;;5005157;28;20211;-80
2021/09/12 06:08:32;;;;;;;6.27;3.70;;;15.10;99.90;;;;;;4993559;28;20182;-80
2021/09/12 06:10:58;;;;;;;4.17;3.70;;;15.10;99.90;;;;;;4993967;28;20180;-80
2021/09/12 06:13:26;;;;;;;3.87;3.57;;;15.20;99.90;;;;;;4992480;28;20172;-79
2021/09/12 06:15:53;;;;;;;4.83;3.80;;;15.20;99.90;;;;;;5002855;28;20560;-79
2021/09/12 06:18:18;;;;;;;4.03;3.63;;;15.20;99.90;;;;;;5014450;28;20184;-79
2021/09/12 06:20:44;;;;;;;3.67;3.37;;;15.30;99.90;;;;;;4998829;28;20179;-80
2021/09/12 06:23:10;;;;;;;3.73;3.43;;;15.40;99.90;;;;;;5015049;28;20724;-79
2021/09/12 06:25:35;;;;;;;3.83;3.33;;;15.40;99.90;;;;;;4996511;28;20203;-80
2021/09/12 06:28:01;;;;;;;3.30;3.00;;;15.40;99.90;;;;;;5009190;28;20211;-79
2021/09/12 06:30:27;;;;;;;3.20;2.93;;;15.50;99.90;;;;;;4985341;28;20263;-79
2021/09/12 06:32:53;;;;;;;4.00;3.17;;;15.50;99.90;;;;;;5002660;28;20213;-80
2021/09/12 06:35:19;;;;;;;3.30;3.10;;;15.60;99.90;;;;;;4990059;28;20226;-79
2021/09/12 06:37:44;;;;;;;3.57;3.30;;;15.60;99.90;;;;;;5007188;28;20221;-79
2021/09/12 06:40:11;;;;;;;3.10;2.90;;;15.70;99.90;;;;;;5012240;28;20187;-78
2021/09/12 06:42:37;;;;;;;3.73;2.97;;;15.80;99.90;;;;;;5015932;28;20196;-79
2021/09/12 06:45:03;;;;;;;3.10;2.90;;;15.80;99.90;;;;;;4991040;28;20199;-79
2021/09/12 06:47:29;;;;;;;3.70;2.80;;;15.90;99.90;;;;;;4994827;28;20210;-80
2021/09/12 06:49:55;;;;;;;2.97;2.77;;;15.90;99.90;;;;;;5031067;28;20173;-79
2021/09/12 06:52:20;;;;;;;3.20;2.90;;;16.00;99.90;;;;;;5016635;28;20179;-79
2021/09/12 06:54:46;;;;;;;4.47;3.23;;;16.00;99.90;;;;;;5007572;28;20183;-78
2021/09/12 06:57:12;;;;;;;3.43;3.00;;;16.10;99.90;;;;;;5009101;28;20602;-80
2021/09/12 06:59:37;;;;;;;4.10;3.13;;;16.10;99.90;;;;;;5012660;28;20604;-80
2021/09/12 07:02:04;;;;;;;3.03;2.83;;;16.20;99.90;;;;;;5008090;28;20194;-80
2021/09/12 07:04:29;;;;;;;3.07;2.87;;;16.20;99.90;;;;;;4995563;28;20718;-81
2021/09/12 07:06:55;;;;;;;2.90;2.70;;;16.20;99.90;;;;;;5033319;28;20209;-80
2021/09/12 07:09:21;;;;;;;3.50;3.20;;;16.30;99.90;;;;;;5030936;28;20209;-79
2021/09/12 07:11:46;;;;;;;3.00;2.80;;;16.40;99.90;;;;;;5020351;28;20272;-81
2021/09/12 07:14:12;;;;;;;3.00;2.80;;;16.50;99.90;;;;;;5002351;28;20245;-80
2021/09/12 07:16:37;;;;;;;2.63;2.30;;;16.50;99.90;;;;;;5038714;28;20205;-81
2021/09/12 07:19:07;;;;;;;2.33;2.10;;;16.60;99.90;;;;;;4998665;28;20247;-80
2021/09/12 07:21:33;;;;;;;2.87;2.20;;;16.60;99.90;;;;;;5030984;28;20180;-80
2021/09/12 07:23:59;;;;;;;2.37;2.20;;;16.70;99.90;;;;;;5039508;28;20182;-80
2021/09/12 07:26:24;;;;;;;2.33;2.23;;;16.70;99.90;;;;;;5038239;28;20243;-80
2021/09/12 07:28:50;;;;;;;2.83;2.40;;;16.80;99.90;;;;;;5032583;28;20182;-80
2021/09/12 07:31:16;;;;;;;2.50;2.30;;;16.90;99.90;;;;;;5019842;28;20244;-80
2021/09/12 07:33:41;;;;;;;2.77;2.20;;;16.90;99.90;;;;;;5026557;28;20192;-80
2021/09/12 07:36:07;;;;;;;2.73;2.10;;;17.00;99.90;;;;;;5011503;28;20218;-80
2021/09/12 07:38:33;;;;;;;2.73;2.53;;;17.00;99.90;;;;;;5006773;28;20198;-79
2021/09/12 07:40:59;;;;;;;2.50;2.30;;;17.00;99.90;;;;;;5006197;28;20554;-80
2021/09/12 07:43:25;;;;;;;2.37;2.17;;;17.10;99.90;;;;;;5041060;28;20616;-79
2021/09/12 07:45:51;;;;;;;2.40;2.20;;;17.10;99.90;;;;;;5023326;28;20202;-80
2021/09/12 07:48:16;;;;;;;2.60;2.40;;;17.20;99.90;;;;;;5037672;28;20224;-80
2021/09/12 07:50:43;;;;;;;2.40;2.30;;;17.20;99.90;;;;;;5042893;28;20205;-79
2021/09/12 07:53:09;;;;;;;3.17;2.60;;;17.30;99.90;;;;;;5017814;28;20645;-79
2021/09/12 07:55:35;;;;;;;2.90;2.60;;;17.30;99.90;;;;;;5004990;28;20213;-80
2021/09/12 07:58:00;;;;;;;3.10;2.80;;;17.40;99.90;;;;;;5010395;28;20184;-80
2021/09/12 08:00:26;;;;;;;2.23;2.03;;;17.40;99.90;;;;;;5001755;28;20274;-80
2021/09/12 08:02:52;;;;;;;2.70;2.50;;;17.40;99.90;;;;;;5012937;28;20618;-81
2021/09/12 08:05:17;;;;;;;2.57;2.37;;;17.40;99.90;;;;;;5009937;28;20286;-80
2021/09/12 08:07:43;;;;;;;2.23;2.03;;;17.50;99.90;;;;;;5018490;28;20207;-79
2021/09/12 08:10:09;;;;;;;2.10;2.00;;;17.50;99.90;;;;;;5034603;28;20181;-80
2021/09/12 08:12:35;;;;;;;3.60;2.20;;;17.60;99.90;;;;;;5028547;28;20286;-80
2021/09/12 08:15:01;;;;;;;2.43;2.23;;;17.70;99.90;;;;;;5011103;28;20301;-80
2021/09/12 08:17:27;;;;;;;2.10;1.90;;;17.80;99.90;;;;;;5025157;28;20186;-80
2021/09/12 08:19:52;;;;;;;3.37;1.97;;;17.80;99.90;;;;;;5024337;28;20217;-80
2021/09/12 08:22:18;;;;;;;6.73;1.80;;;17.80;99.90;;;;;;5024784;28;20213;-80
2021/09/12 08:24:44;;;;;;;2.37;2.17;;;17.90;99.90;;;;;;5011291;28;20194;-80
2021/09/12 08:27:10;;;;;;;2.03;1.93;;;18.00;99.90;;;;;;5024399;28;20210;-80
2021/09/12 08:29:35;;;;;;;1.80;1.70;;;18.10;99.90;;;;;;5031862;28;20218;-80
2021/09/12 08:32:01;;;;;;;2.20;2.00;;;18.20;99.90;;;;;;5019302;28;20264;-80
2021/09/12 08:34:27;;;;;;;2.70;1.80;;;;;;;;;;5037975;28;20179;-80
2021/09/12 08:36:53;;;;;;;2.27;2.13;;;18.30;99.90;;;;;;5023815;28;20222;-80
2021/09/12 08:39:19;;;;;;;2.40;2.10;;;18.30;99.90;;;;;;5041889;28;20193;-80
2021/09/12 08:41:45;;;;;;;2.37;2.00;;;18.40;99.90;;;;;;5032233;28;20190;-81
2021/09/12 08:44:17;;;;;;;2.60;1.90;;;18.50;99.90;;;;;;5032493;28;20186;-80
2021/09/12 08:46:44;;;;;;;1.77;1.67;;;18.60;99.90;;;;;;5023815;28;20293;-80
2021/09/12 08:49:10;;;;;;;2.40;2.00;;;18.60;99.90;;;;;;5006908;28;20199;-80
2021/09/12 08:51:36;;;;;;;2.47;2.10;;;18.60;99.90;;;;;;5034070;28;20183;-82
2021/09/12 08:54:01;;;;;;;2.57;2.37;;;18.50;99.90;;;;;;5021403;28;20182;-80
2021/09/12 08:56:27;;;;;;;2.03;1.83;;;18.50;99.90;;;;;;5042301;28;20273;-80
2021/09/12 08:58:52;;;;;;;3.37;2.10;;;18.60;99.90;;;;;;5038350;28;20265;-79
2021/09/12 09:01:30;;;;;;;2.13;1.87;;;18.60;99.90;;;;;;5005551;28;20661;-80
2021/09/12 09:04:00;;;;;;;2.37;2.17;;;18.60;99.90;;;;;;5016649;28;20188;-81
2021/09/12 09:06:37;;;;;;;2.23;2.07;;;18.60;99.90;;;;;;4990007;28;20211;-80
2021/09/12 09:09:04;;;;;;;2.43;2.23;;;18.70;99.90;;;;;;4993348;28;20206;-79
2021/09/12 09:11:30;;;;;;;2.50;2.30;;;18.70;99.90;;;;;;4992339;28;20180;-79
2021/09/12 09:14:01;;;;;;;2.30;2.17;;;18.70;99.90;;;;;;4995448;28;20181;-80
2021/09/12 09:16:29;;;;;;;2.13;1.93;;;18.80;99.90;;;;;;5011517;28;20207;-80
2021/09/12 09:19:06;;;;;;;2.40;1.80;;;19.00;99.90;;;;;;5004558;28;20178;-80
2021/09/12 09:21:37;;;;;;;2.80;2.17;;;18.90;99.90;;;;;;5018794;28;20524;-80
2021/09/12 09:24:22;;;;;;;2.43;2.23;;;19.00;99.90;;;;;;5005116;28;20214;-79
2021/09/12 09:27:07;;;;;;;2.17;1.90;;;19.10;99.90;;;;;;5007978;28;20215;-81
2021/09/12 09:29:36;;;;;;;2.00;1.90;;;19.30;99.90;;;;;;4985204;28;20187;-81
2021/09/12 09:32:05;;;;;;;2.10;1.90;;;19.40;99.90;;;;;;5013995;28;20179;-80
2021/09/12 09:34:31;;;;;;;1.70;1.60;;;19.40;99.90;;;;;;5030561;28;20214;-80
2021/09/12 09:37:16;;;;;;;4.30;2.40;;;19.30;99.90;;;;;;5029514;28;20549;-80
2021/09/12 09:39:46;;;;;;;1.87;1.77;;;19.30;99.90;;;;;;5018501;28;20311;-79
2021/09/12 09:42:38;;;;;;;2.30;2.20;;;19.40;99.90;;;;;;5018321;28;20643;-80
2021/09/12 09:45:16;;;;;;;3.40;2.37;;;19.50;99.90;;;;;;5023083;28;20289;-80
2021/09/12 09:47:44;;;;;;;2.23;2.03;;;19.60;99.90;;;;;;5004344;28;20210;-80
2021/09/12 09:50:18;;;;;;;3.33;2.03;;;19.70;99.90;;;;;;5005550;28;20178;-82
2021/09/12 09:52:46;;;;;;;2.33;2.13;;;19.80;99.90;;;;;;5007520;28;20206;-81
2021/09/12 09:55:16;;;;;;;1.90;1.80;;;19.80;99.90;;;;;;5006166;28;20222;-80
2021/09/12 09:57:48;;;;;;;2.10;1.87;;;19.80;99.90;;;;;;5013341;28;20190;-80
2021/09/12 10:00:15;;;;;;;3.77;2.53;;;19.80;99.90;;;;;;5009369;28;20186;-81
2021/09/12 10:02:41;;;;;;;2.10;1.90;;;19.80;99.90;;;;;;5012844;28;20290;-80
2021/09/12 10:05:09;;;;;;;1.97;1.83;;;19.70;99.90;;;;;;5014943;28;20749;-79
2021/09/12 10:07:37;;;;;;;2.50;2.07;;;19.70;99.90;;;;;;4990864;28;20670;-81
2021/09/12 10:10:05;;;;;;;2.37;1.70;;;19.60;99.90;;;;;;5012368;28;20175;-80
2021/09/12 10:12:32;;;;;;;2.50;1.90;;;19.60;99.90;;;;;;5009706;28;20187;-80
2021/09/12 10:15:03;;;;;;;2.43;2.17;;;19.70;99.90;;;;;;5003891;28;20199;-81
2021/09/12 10:17:31;;;;;;;2.37;1.87;;;19.70;99.90;;;;;;5013379;28;20180;-80
2021/09/12 10:20:11;;;;;;;2.20;2.00;;;19.70;99.90;;;;;;5006515;28;20187;-80
2021/09/12 10:22:56;;;;;;;2.57;1.80;;;19.70;99.90;;;;;;5006310;28;20643;-80
2021/09/12 10:25:23;;;;;;;2.23;1.80;;;19.70;99.90;;;;;;5026764;28;20323;-81
2021/09/12 10:28:03;;;;;;;2.43;2.00;;;19.70;99.90;;;;;;5007357;28;20195;-81
2021/09/12 10:30:37;;;;;;;2.53;1.90;;;19.70;99.90;;;;;;5012071;28;20175;-80
2021/09/12 10:33:06;;;;;;;1.90;1.80;;;19.70;99.90;;;;;;5018595;28;20170;-80
2021/09/12 10:35:36;;;;;;;2.17;1.90;;;19.80;99.90;;;;;;4995710;28;20616;-81
2021/09/12 10:38:11;;;;;;;2.00;1.80;;;19.80;99.90;;;;;;5005816;28;20179;-80
2021/09/12 10:40:49;;;;;;;3.37;2.10;;;19.80;99.90;;;;;;4990445;28;20278;-81
2021/09/12 10:43:30;;;;;;;2.30;2.10;;;19.90;99.90;;;;;;4992789;28;20183;-81
2021/09/12 10:46:04;;;;;;;2.13;1.90;;;19.90;99.90;;;;;;5014060;28;20203;-82
2021/09/12 10:49:02;;;;;;;2.40;1.90;;;19.90;99.90;;;;;;5018226;28;20202;-83
2021/09/12 10:51:29;;;;;;;2.37;1.73;;;20.00;99.90;;;;;;5026621;28;20187;-83
2021/09/12 10:53:55;;;;;;;2.33;2.00;;;20.10;99.90;;;;;;5026739;28;20262;-82
2021/09/12 10:56:21;;;;;;;2.20;1.90;;;20.10;99.90;;;;;;5027611;28;20226;-82
2021/09/12 10:58:54;;;;;;;2.10;2.00;;;20.10;99.90;;;;;;5015942;28;20666;-83
2021/09/12 11:01:28;;;;;;;1.87;1.70;;;20.10;99.90;;;;;;5016411;28;20155;-82
2021/09/12 11:03:58;;;;;;;2.27;2.03;;;20.10;99.90;;;;;;5020855;28;20185;-83
2021/09/12 11:06:25;;;;;;;2.00;1.90;;;20.20;99.90;;;;;;5023478;28;20716;-82
2021/09/12 11:08:51;;;;;;;3.33;2.20;;;20.10;99.90;;;;;;5019424;28;20175;-82
2021/09/12 11:11:17;;;;;;;1.90;1.80;;;20.10;99.90;;;;;;5008321;28;20225;-82
2021/09/12 11:13:43;;;;;;;2.37;2.20;;;20.20;99.90;;;;;;5000535;28;20182;-82
2021/09/12 11:16:18;;;;;;;2.90;2.43;;;20.10;99.90;;;;;;5018036;28;20194;-82
2021/09/12 11:18:52;;;;;;;2.40;1.70;;;20.20;99.90;;;;;;5035365;28;20180;-83
2021/09/12 11:21:33;;;;;;;2.90;2.30;;;20.20;99.90;;;;;;5035470;28;20174;-82
2021/09/12 11:24:08;;;;;;;2.57;2.30;;;20.30;99.90;;;;;;5022593;28;20665;-82
2021/09/12 11:26:41;;;;;;;2.33;2.13;;;20.40;99.90;;;;;;5034729;28;20202;-82
2021/09/12 11:29:18;;;;;;;2.70;2.23;;;20.40;99.90;;;;;;5035430;28;20186;-82
2021/09/12 11:31:46;;;;;;;2.93;2.00;;;20.40;99.90;;;;;;5035343;28;20216;-82
2021/09/12 11:34:12;;;;;;;2.83;2.27;;;20.50;99.90;;;;;;5034707;28;20177;-82
2021/09/12 11:36:42;;;;;;;3.00;2.00;;;20.50;99.90;;;;;;5060448;23;20668;-85
2021/09/12 11:39:08;;;;;;;2.73;1.80;;;20.50;99.90;;;;;;5040043;28;20174;-85
2021/09/12 11:41:33;;;;;;;1.73;1.63;;;20.50;99.90;;;;;;5038196;28;20594;-85
2021/09/12 11:44:01;;;;;;;2.33;2.23;;;20.60;99.90;;;;;;5039548;28;20606;-85
2021/09/12 11:46:29;;;;;;;2.23;1.80;;;20.70;99.90;;;;;;5026654;28;20249;-86
2021/09/12 11:48:59;;;;;;;2.20;2.00;;;20.80;99.90;;;;;;5019054;28;20174;-85
2021/09/12 11:51:27;;;;;;;2.20;2.00;;;21.00;99.90;;;;;;5018258;28;20172;-85
2021/09/12 11:54:29;;;;;;;2.00;1.80;;;21.10;99.90;;;;;;5019712;28;20246;-86
2021/09/12 11:57:02;;;;;;;2.40;2.20;;;21.30;99.90;;;;;;4997263;28;20290;-85
2021/09/12 11:59:48;;;;;;;2.50;2.03;;;21.60;99.90;;;;;;5015940;28;20194;-85
2021/09/12 12:02:23;;;;;;;1.80;1.70;;;21.60;99.90;;;;;;5020182;28;20692;-85
2021/09/12 12:04:49;;;;;;;2.27;1.73;;;21.70;99.90;;;;;;5019576;28;20173;-83
2021/09/12 12:07:16;;;;;;;2.03;1.93;;;21.80;99.90;;;;;;5019028;28;20286;-85
2021/09/12 12:09:47;;;;;;;1.97;1.77;;;22.00;99.90;;;;;;5019402;28;20175;-85
2021/09/12 12:12:20;;;;;;;2.20;2.00;;;22.00;99.90;;;;;;5017756;28;20171;-85
2021/09/12 12:14:51;;;;;;;2.90;1.70;;;22.10;99.90;;;;;;5020676;28;20176;-85
2021/09/12 12:17:20;;;;;;;2.10;1.90;;;22.20;99.90;;;;;;5021384;28;20633;-85
2021/09/12 12:19:46;;;;;;;1.60;1.50;;;22.40;99.90;;;;;;5021009;28;20179;-85
2021/09/12 12:22:13;;;;;;;2.30;1.67;;;22.60;99.90;;;;;;5021608;28;20229;-85
2021/09/12 12:24:43;;;;;;;1.70;1.60;;;22.60;99.90;;;;;;5022335;28;20183;-84
2021/09/12 12:27:11;;;;;;;3.33;1.60;;;22.60;99.90;;;;;;5023048;28;20199;-85
2021/09/12 12:29:40;;;;;;;2.13;1.90;;;22.50;99.90;;;;;;5022953;28;20185;-85
2021/09/12 12:32:07;;;;;;;1.80;1.70;;;22.50;99.90;;;;;;5021674;28;20175;-85
2021/09/12 12:34:43;;;;;;;1.73;1.63;;;22.50;99.90;;;;;;5020291;28;20175;-85
2021/09/12 12:37:11;;;;;;;2.27;1.37;;;22.40;99.90;;;;;;5022010;28;20218;-85
2021/09/12 12:39:38;;;;;;;2.40;1.70;;;22.20;99.90;;;;;;5012983;28;20189;-85
2021/09/12 12:42:04;;;;;;;2.20;2.00;;;22.20;99.90;;;;;;5021042;28;20182;-85
2021/09/12 12:44:45;;;;;;;1.83;1.73;;;22.10;99.90;;;;;;5022106;28;20178;-85
2021/09/12 12:47:27;;;;;;;2.20;2.00;;;22.10;99.90;;;;;;5020017;28;20234;-85
2021/09/12 12:49:58;;;;;;;2.30;2.10;;;22.10;99.90;;;;;;5021883;28;20186;-85
2021/09/12 12:52:27;;;;;;;2.93;2.13;;;22.00;99.90;;;;;;5021963;28;20172;-85